sensor_id;sensor_type;location;lat;lon;timestamp;temperature;humidity
15554;DHT22;7878;44.632;10.942;2023-04-05T00:01:22;9.70;51.50
15554;DHT22;7878;44.632;10.942;2023-04-05T00:03:54;9.60;51.50
15554;DHT22;7878;44.632;10.942;2023-04-05T00:06:22;9.50;51.40
15554;DHT22;7878;44.632;10.942;2023-04-05T00:09:00;9.50;51.20
15554;DHT22;7878;44.632;10.942;2023-04-05T00:11:27;9.50;51.20
15554;DHT22;7878;44.632;10.942;2023-04-05T00:13:54;9.50;51.20
15554;DHT22;7878;44.632;10.942;2023-04-05T00:16:20;9.50;51.20
15554;DHT22;7878;44.632;10.942;2023-04-05T00:18:46;9.50;51.00
15554;DHT22;7878;44.632;10.942;2023-04-05T00:21:20;9.50;50.80
15554;DHT22;7878;44.632;10.942;2023-04-05T00:23:49;9.50;50.70
15554;DHT22;7878;44.632;10.942;2023-04-05T00:26:16;9.40;50.60
15554;DHT22;7878;44.632;10.942;2023-04-05T00:28:42;9.40;50.80
15554;DHT22;7878;44.632;10.942;2023-04-05T00:31:08;9.40;50.80
15554;DHT22;7878;44.632;10.942;2023-04-05T00:33:34;9.30;50.60
15554;DHT22;7878;44.632;10.942;2023-04-05T00:36:19;9.30;50.60
15554;DHT22;7878;44.632;10.942;2023-04-05T00:38:46;9.30;50.20
15554;DHT22;7878;44.632;10.942;2023-04-05T00:41:13;9.30;50.30
15554;DHT22;7878;44.632;10.942;2023-04-05T00:43:39;9.20;50.00
15554;DHT22;7878;44.632;10.942;2023-04-05T00:46:05;9.20;49.90
15554;DHT22;7878;44.632;10.942;2023-04-05T00:48:32;9.20;49.80
15554;DHT22;7878;44.632;10.942;2023-04-05T00:50:58;9.20;49.70
15554;DHT22;7878;44.632;10.942;2023-04-05T00:53:24;9.20;49.60
15554;DHT22;7878;44.632;10.942;2023-04-05T00:55:53;9.20;49.60
15554;DHT22;7878;44.632;10.942;2023-04-05T00:58:20;9.20;49.60
15554;DHT22;7878;44.632;10.942;2023-04-05T01:01:02;9.20;49.70
15554;DHT22;7878;44.632;10.942;2023-04-05T01:03:33;9.20;49.40
15554;DHT22;7878;44.632;10.942;2023-04-05T01:11:09;9.00;49.70
15554;DHT22;7878;44.632;10.942;2023-04-05T01:13:36;9.00;50.30
15554;DHT22;7878;44.632;10.942;2023-04-05T01:16:02;9.00;50.90
15554;DHT22;7878;44.632;10.942;2023-04-05T01:18:28;9.00;52.00
15554;DHT22;7878;44.632;10.942;2023-04-05T01:21:16;9.00;52.10
15554;DHT22;7878;44.632;10.942;2023-04-05T01:32:03;9.00;52.20
15554;DHT22;7878;44.632;10.942;2023-04-05T01:34:49;8.90;52.10
15554;DHT22;7878;44.632;10.942;2023-04-05T01:37:19;8.90;51.80
15554;DHT22;7878;44.632;10.942;2023-04-05T01:39:45;8.80;51.40
15554;DHT22;7878;44.632;10.942;2023-04-05T01:42:17;8.70;51.20
15554;DHT22;7878;44.632;10.942;2023-04-05T01:44:47;8.60;51.20
15554;DHT22;7878;44.632;10.942;2023-04-05T01:47:13;8.50;51.40
15554;DHT22;7878;44.632;10.942;2023-04-05T01:49:38;8.40;51.60
15554;DHT22;7878;44.632;10.942;2023-04-05T01:52:04;8.40;51.80
15554;DHT22;7878;44.632;10.942;2023-04-05T01:54:30;8.40;51.90
15554;DHT22;7878;44.632;10.942;2023-04-05T01:56:55;8.40;52.40
15554;DHT22;7878;44.632;10.942;2023-04-05T01:59:21;8.40;52.00
15554;DHT22;7878;44.632;10.942;2023-04-05T02:01:47;8.40;51.90
15554;DHT22;7878;44.632;10.942;2023-04-05T02:04:13;8.40;51.80
15554;DHT22;7878;44.632;10.942;2023-04-05T02:06:38;8.40;51.90
15554;DHT22;7878;44.632;10.942;2023-04-05T02:09:04;8.40;51.80
15554;DHT22;7878;44.632;10.942;2023-04-05T02:11:30;8.40;51.80
15554;DHT22;7878;44.632;10.942;2023-04-05T02:13:55;8.40;51.60
15554;DHT22;7878;44.632;10.942;2023-04-05T02:16:21;8.50;51.50
15554;DHT22;7878;44.632;10.942;2023-04-05T02:18:47;8.50;51.80
15554;DHT22;7878;44.632;10.942;2023-04-05T02:21:15;8.50;52.20
15554;DHT22;7878;44.632;10.942;2023-04-05T02:23:41;8.40;52.50
15554;DHT22;7878;44.632;10.942;2023-04-05T02:26:06;8.40;52.70
15554;DHT22;7878;44.632;10.942;2023-04-05T02:28:32;8.30;52.50
15554;DHT22;7878;44.632;10.942;2023-04-05T02:30:59;8.30;52.80
15554;DHT22;7878;44.632;10.942;2023-04-05T02:33:24;8.30;52.80
15554;DHT22;7878;44.632;10.942;2023-04-05T02:35:51;8.30;52.50
15554;DHT22;7878;44.632;10.942;2023-04-05T02:38:17;8.30;52.40
15554;DHT22;7878;44.632;10.942;2023-04-05T02:40:47;8.20;52.40
15554;DHT22;7878;44.632;10.942;2023-04-05T02:43:13;8.20;52.80
15554;DHT22;7878;44.632;10.942;2023-04-05T02:45:38;8.10;52.80
15554;DHT22;7878;44.632;10.942;2023-04-05T02:48:04;8.10;53.20
15554;DHT22;7878;44.632;10.942;2023-04-05T02:50:30;8.10;53.40
15554;DHT22;7878;44.632;10.942;2023-04-05T02:52:55;8.10;53.80
15554;DHT22;7878;44.632;10.942;2023-04-05T02:55:21;8.10;53.70
15554;DHT22;7878;44.632;10.942;2023-04-05T02:57:47;8.10;53.90
15554;DHT22;7878;44.632;10.942;2023-04-05T03:00:13;8.10;53.80
15554;DHT22;7878;44.632;10.942;2023-04-05T03:02:38;8.10;54.10
15554;DHT22;7878;44.632;10.942;2023-04-05T03:05:05;8.10;54.10
15554;DHT22;7878;44.632;10.942;2023-04-05T03:07:32;8.10;54.20
15554;DHT22;7878;44.632;10.942;2023-04-05T03:09:58;8.00;54.00
15554;DHT22;7878;44.632;10.942;2023-04-05T03:12:24;8.10;54.30
15554;DHT22;7878;44.632;10.942;2023-04-05T03:14:49;8.10;54.20
15554;DHT22;7878;44.632;10.942;2023-04-05T03:17:15;8.10;54.10
15554;DHT22;7878;44.632;10.942;2023-04-05T03:19:41;8.10;54.10
15554;DHT22;7878;44.632;10.942;2023-04-05T03:22:07;8.10;54.10
15554;DHT22;7878;44.632;10.942;2023-04-05T03:24:32;8.10;54.10
15554;DHT22;7878;44.632;10.942;2023-04-05T03:27:01;8.10;53.70
15554;DHT22;7878;44.632;10.942;2023-04-05T03:29:28;8.00;53.80
15554;DHT22;7878;44.632;10.942;2023-04-05T03:31:56;7.90;53.90
15554;DHT22;7878;44.632;10.942;2023-04-05T03:34:21;8.00;54.20
15554;DHT22;7878;44.632;10.942;2023-04-05T03:36:53;7.90;54.40
15554;DHT22;7878;44.632;10.942;2023-04-05T03:39:19;7.90;54.70
15554;DHT22;7878;44.632;10.942;2023-04-05T03:41:45;7.90;54.60
15554;DHT22;7878;44.632;10.942;2023-04-05T03:44:11;7.90;54.80
15554;DHT22;7878;44.632;10.942;2023-04-05T03:46:36;7.80;54.90
15554;DHT22;7878;44.632;10.942;2023-04-05T03:49:02;7.80;55.10
15554;DHT22;7878;44.632;10.942;2023-04-05T03:51:28;7.80;55.10
15554;DHT22;7878;44.632;10.942;2023-04-05T03:53:54;7.80;55.10
15554;DHT22;7878;44.632;10.942;2023-04-05T03:56:20;7.70;55.10
15554;DHT22;7878;44.632;10.942;2023-04-05T03:58:46;7.70;55.00
15554;DHT22;7878;44.632;10.942;2023-04-05T04:01:12;7.70;54.90
15554;DHT22;7878;44.632;10.942;2023-04-05T04:03:37;7.70;54.90
15554;DHT22;7878;44.632;10.942;2023-04-05T04:06:04;7.60;55.00
15554;DHT22;7878;44.632;10.942;2023-04-05T04:08:30;7.60;55.40
15554;DHT22;7878;44.632;10.942;2023-04-05T04:10:56;7.70;55.10
15554;DHT22;7878;44.632;10.942;2023-04-05T04:13:21;7.70;54.90
15554;DHT22;7878;44.632;10.942;2023-04-05T04:15:47;7.80;55.00
15554;DHT22;7878;44.632;10.942;2023-04-05T04:18:13;7.80;54.80
15554;DHT22;7878;44.632;10.942;2023-04-05T04:20:38;7.80;54.60
15554;DHT22;7878;44.632;10.942;2023-04-05T04:23:04;7.70;54.70
15554;DHT22;7878;44.632;10.942;2023-04-05T04:25:34;7.70;55.00
15554;DHT22;7878;44.632;10.942;2023-04-05T04:28:03;7.60;55.20
15554;DHT22;7878;44.632;10.942;2023-04-05T04:30:28;7.50;55.30
15554;DHT22;7878;44.632;10.942;2023-04-05T04:32:54;7.50;55.40
15554;DHT22;7878;44.632;10.942;2023-04-05T04:35:25;7.50;55.60
15554;DHT22;7878;44.632;10.942;2023-04-05T04:37:59;7.50;55.80
15554;DHT22;7878;44.632;10.942;2023-04-05T04:40:35;7.50;55.70
15554;DHT22;7878;44.632;10.942;2023-04-05T04:43:06;7.50;56.00
15554;DHT22;7878;44.632;10.942;2023-04-05T04:45:35;7.60;56.20
15554;DHT22;7878;44.632;10.942;2023-04-05T04:48:02;7.50;55.70
15554;DHT22;7878;44.632;10.942;2023-04-05T04:50:29;7.60;55.40
15554;DHT22;7878;44.632;10.942;2023-04-05T04:52:57;7.60;55.00
15554;DHT22;7878;44.632;10.942;2023-04-05T04:55:23;7.50;55.10
15554;DHT22;7878;44.632;10.942;2023-04-05T04:57:53;7.50;55.00
15554;DHT22;7878;44.632;10.942;2023-04-05T05:00:19;7.50;54.80
15554;DHT22;7878;44.632;10.942;2023-04-05T05:02:45;7.50;54.80
15554;DHT22;7878;44.632;10.942;2023-04-05T05:05:12;7.50;54.90
15554;DHT22;7878;44.632;10.942;2023-04-05T05:07:39;7.40;55.20
15554;DHT22;7878;44.632;10.942;2023-04-05T05:10:09;7.40;54.90
15554;DHT22;7878;44.632;10.942;2023-04-05T05:12:39;7.50;55.00
15554;DHT22;7878;44.632;10.942;2023-04-05T05:15:05;7.50;54.60
15554;DHT22;7878;44.632;10.942;2023-04-05T05:17:31;7.60;54.60
15554;DHT22;7878;44.632;10.942;2023-04-05T05:19:57;7.60;54.30
15554;DHT22;7878;44.632;10.942;2023-04-05T05:22:25;7.70;54.40
15554;DHT22;7878;44.632;10.942;2023-04-05T05:24:52;7.70;54.40
15554;DHT22;7878;44.632;10.942;2023-04-05T05:27:17;7.70;54.70
15554;DHT22;7878;44.632;10.942;2023-04-05T05:29:43;7.70;54.50
15554;DHT22;7878;44.632;10.942;2023-04-05T05:32:09;7.80;54.40
15554;DHT22;7878;44.632;10.942;2023-04-05T05:34:40;7.80;54.40
15554;DHT22;7878;44.632;10.942;2023-04-05T05:37:06;7.80;54.10
15554;DHT22;7878;44.632;10.942;2023-04-05T05:39:34;7.80;53.80
15554;DHT22;7878;44.632;10.942;2023-04-05T05:42:01;7.80;53.90
15554;DHT22;7878;44.632;10.942;2023-04-05T05:44:28;7.80;54.00
15554;DHT22;7878;44.632;10.942;2023-04-05T05:46:54;7.90;53.90
15554;DHT22;7878;44.632;10.942;2023-04-05T05:49:19;7.90;53.90
15554;DHT22;7878;44.632;10.942;2023-04-05T05:51:45;7.90;53.90
15554;DHT22;7878;44.632;10.942;2023-04-05T05:54:11;7.90;53.90
15554;DHT22;7878;44.632;10.942;2023-04-05T05:56:37;7.90;53.90
15554;DHT22;7878;44.632;10.942;2023-04-05T05:59:03;7.90;54.00
15554;DHT22;7878;44.632;10.942;2023-04-05T06:01:28;7.90;53.90
15554;DHT22;7878;44.632;10.942;2023-04-05T06:03:54;7.90;53.90
15554;DHT22;7878;44.632;10.942;2023-04-05T06:06:21;7.90;53.90
15554;DHT22;7878;44.632;10.942;2023-04-05T06:08:46;8.00;54.00
15554;DHT22;7878;44.632;10.942;2023-04-05T06:11:19;8.00;53.60
15554;DHT22;7878;44.632;10.942;2023-04-05T06:13:45;8.00;53.30
15554;DHT22;7878;44.632;10.942;2023-04-05T06:16:11;8.10;53.20
15554;DHT22;7878;44.632;10.942;2023-04-05T06:18:37;8.10;53.30
15554;DHT22;7878;44.632;10.942;2023-04-05T06:21:03;8.10;53.40
15554;DHT22;7878;44.632;10.942;2023-04-05T06:23:28;8.10;53.70
15554;DHT22;7878;44.632;10.942;2023-04-05T06:25:55;8.20;53.90
15554;DHT22;7878;44.632;10.942;2023-04-05T06:28:21;8.30;54.80
15554;DHT22;7878;44.632;10.942;2023-04-05T06:30:47;8.40;54.40
15554;DHT22;7878;44.632;10.942;2023-04-05T06:33:12;8.50;54.40
15554;DHT22;7878;44.632;10.942;2023-04-05T06:35:38;8.50;54.20
15554;DHT22;7878;44.632;10.942;2023-04-05T06:38:04;8.60;53.80
15554;DHT22;7878;44.632;10.942;2023-04-05T06:40:29;8.60;53.40
15554;DHT22;7878;44.632;10.942;2023-04-05T06:42:55;8.60;53.80
15554;DHT22;7878;44.632;10.942;2023-04-05T06:45:21;8.70;53.80
15554;DHT22;7878;44.632;10.942;2023-04-05T06:47:47;8.80;53.50
15554;DHT22;7878;44.632;10.942;2023-04-05T06:50:13;8.90;53.20
15554;DHT22;7878;44.632;10.942;2023-04-05T06:52:39;8.90;53.20
15554;DHT22;7878;44.632;10.942;2023-04-05T06:55:05;9.10;53.40
15554;DHT22;7878;44.632;10.942;2023-04-05T06:57:32;9.40;53.10
15554;DHT22;7878;44.632;10.942;2023-04-05T06:59:58;10.00;51.80
15554;DHT22;7878;44.632;10.942;2023-04-05T07:02:24;10.60;51.20
15554;DHT22;7878;44.632;10.942;2023-04-05T07:04:50;11.20;50.60
15554;DHT22;7878;44.632;10.942;2023-04-05T07:07:15;11.80;50.10
15554;DHT22;7878;44.632;10.942;2023-04-05T07:09:41;12.30;49.20
15554;DHT22;7878;44.632;10.942;2023-04-05T07:12:07;12.80;49.20
15554;DHT22;7878;44.632;10.942;2023-04-05T07:14:35;13.10;48.80
15554;DHT22;7878;44.632;10.942;2023-04-05T07:17:05;13.30;48.10
15554;DHT22;7878;44.632;10.942;2023-04-05T07:19:32;13.20;48.10
15554;DHT22;7878;44.632;10.942;2023-04-05T07:21:58;13.20;48.10
15554;DHT22;7878;44.632;10.942;2023-04-05T07:24:24;13.40;48.40
15554;DHT22;7878;44.632;10.942;2023-04-05T07:26:50;13.70;47.60
15554;DHT22;7878;44.632;10.942;2023-04-05T07:29:16;13.90;48.10
15554;DHT22;7878;44.632;10.942;2023-04-05T07:31:42;14.30;47.00
15554;DHT22;7878;44.632;10.942;2023-04-05T07:34:07;14.50;46.60
15554;DHT22;7878;44.632;10.942;2023-04-05T07:36:33;14.40;46.60
15554;DHT22;7878;44.632;10.942;2023-04-05T07:38:59;14.20;47.10
15554;DHT22;7878;44.632;10.942;2023-04-05T07:41:27;14.00;47.20
15554;DHT22;7878;44.632;10.942;2023-04-05T07:43:56;14.10;47.10
15554;DHT22;7878;44.632;10.942;2023-04-05T07:46:22;14.10;47.50
15554;DHT22;7878;44.632;10.942;2023-04-05T07:48:48;14.20;47.40
15554;DHT22;7878;44.632;10.942;2023-04-05T07:51:14;14.30;47.70
15554;DHT22;7878;44.632;10.942;2023-04-05T07:53:39;14.30;46.50
15554;DHT22;7878;44.632;10.942;2023-04-05T07:56:09;14.10;46.80
15554;DHT22;7878;44.632;10.942;2023-04-05T07:58:36;14.00;47.20
15554;DHT22;7878;44.632;10.942;2023-04-05T08:01:06;14.00;47.20
15554;DHT22;7878;44.632;10.942;2023-04-05T08:03:32;14.10;47.40
15554;DHT22;7878;44.632;10.942;2023-04-05T08:06:10;14.20;46.50
15554;DHT22;7878;44.632;10.942;2023-04-05T08:08:36;14.50;45.50
15554;DHT22;7878;44.632;10.942;2023-04-05T08:11:02;14.80;45.60
15554;DHT22;7878;44.632;10.942;2023-04-05T08:13:28;15.00;44.80
15554;DHT22;7878;44.632;10.942;2023-04-05T08:15:57;15.30;44.80
15554;DHT22;7878;44.632;10.942;2023-04-05T08:18:22;15.70;44.80
15554;DHT22;7878;44.632;10.942;2023-04-05T08:20:52;16.00;44.80
15554;DHT22;7878;44.632;10.942;2023-04-05T08:23:18;16.70;44.00
15554;DHT22;7878;44.632;10.942;2023-04-05T08:25:44;17.10;44.60
15554;DHT22;7878;44.632;10.942;2023-04-05T08:28:10;17.50;44.40
15554;DHT22;7878;44.632;10.942;2023-04-05T08:30:37;17.40;43.40
15554;DHT22;7878;44.632;10.942;2023-04-05T08:33:03;17.20;43.60
15554;DHT22;7878;44.632;10.942;2023-04-05T08:35:29;17.60;43.80
15554;DHT22;7878;44.632;10.942;2023-04-05T08:37:55;17.80;44.20
15554;DHT22;7878;44.632;10.942;2023-04-05T08:40:28;18.10;44.10
15554;DHT22;7878;44.632;10.942;2023-04-05T08:43:27;18.20;44.10
15554;DHT22;7878;44.632;10.942;2023-04-05T08:45:58;18.00;42.80
15554;DHT22;7878;44.632;10.942;2023-04-05T08:48:25;17.80;44.30
15554;DHT22;7878;44.632;10.942;2023-04-05T08:50:53;17.70;44.20
15554;DHT22;7878;44.632;10.942;2023-04-05T08:53:20;17.60;44.20
15554;DHT22;7878;44.632;10.942;2023-04-05T08:55:50;17.40;44.20
15554;DHT22;7878;44.632;10.942;2023-04-05T08:58:19;17.40;44.00
15554;DHT22;7878;44.632;10.942;2023-04-05T09:00:47;16.90;43.80
15554;DHT22;7878;44.632;10.942;2023-04-05T09:03:17;16.50;44.10
15554;DHT22;7878;44.632;10.942;2023-04-05T09:05:45;16.20;43.90
15554;DHT22;7878;44.632;10.942;2023-04-05T09:08:13;15.80;44.00
15554;DHT22;7878;44.632;10.942;2023-04-05T09:10:39;15.40;43.60
15554;DHT22;7878;44.632;10.942;2023-04-05T09:13:05;15.30;43.80
15554;DHT22;7878;44.632;10.942;2023-04-05T09:15:33;15.20;43.80
15554;DHT22;7878;44.632;10.942;2023-04-05T09:17:59;15.10;44.60
15554;DHT22;7878;44.632;10.942;2023-04-05T09:20:25;15.30;44.80
15554;DHT22;7878;44.632;10.942;2023-04-05T09:22:51;15.40;43.60
15554;DHT22;7878;44.632;10.942;2023-04-05T09:28:02;15.80;42.30
15554;DHT22;7878;44.632;10.942;2023-04-05T09:30:28;16.00;42.40
15554;DHT22;7878;44.632;10.942;2023-04-05T09:32:55;16.00;42.80
15554;DHT22;7878;44.632;10.942;2023-04-05T09:35:22;15.90;42.20
15554;DHT22;7878;44.632;10.942;2023-04-05T09:37:59;15.80;41.10
15554;DHT22;7878;44.632;10.942;2023-04-05T09:43:11;15.70;39.30
15554;DHT22;7878;44.632;10.942;2023-04-05T09:45:41;15.60;40.10
15554;DHT22;7878;44.632;10.942;2023-04-05T09:48:08;15.50;41.10
15554;DHT22;7878;44.632;10.942;2023-04-05T09:50:34;15.40;39.50
15554;DHT22;7878;44.632;10.942;2023-04-05T09:53:10;15.20;39.80
15554;DHT22;7878;44.632;10.942;2023-04-05T09:55:40;15.20;39.20
15554;DHT22;7878;44.632;10.942;2023-04-05T09:58:19;15.10;39.70
15554;DHT22;7878;44.632;10.942;2023-04-05T10:00:49;15.20;40.50
15554;DHT22;7878;44.632;10.942;2023-04-05T10:03:19;15.50;40.80
15554;DHT22;7878;44.632;10.942;2023-04-05T10:05:45;15.70;41.20
15554;DHT22;7878;44.632;10.942;2023-04-05T10:08:13;15.90;41.10
15554;DHT22;7878;44.632;10.942;2023-04-05T10:10:45;15.90;41.50
15554;DHT22;7878;44.632;10.942;2023-04-05T10:13:13;16.00;40.40
15554;DHT22;7878;44.632;10.942;2023-04-05T10:15:42;16.20;40.00
15554;DHT22;7878;44.632;10.942;2023-04-05T10:18:14;16.30;38.90
15554;DHT22;7878;44.632;10.942;2023-04-05T10:20:44;16.40;39.70
15554;DHT22;7878;44.632;10.942;2023-04-05T10:28:11;16.50;40.70
15554;DHT22;7878;44.632;10.942;2023-04-05T10:30:46;16.40;40.20
15554;DHT22;7878;44.632;10.942;2023-04-05T10:33:29;16.50;40.30
15554;DHT22;7878;44.632;10.942;2023-04-05T10:41:12;17.10;40.20
15554;DHT22;7878;44.632;10.942;2023-04-05T10:43:39;17.30;40.90
15554;DHT22;7878;44.632;10.942;2023-04-05T10:46:06;17.30;40.00
15554;DHT22;7878;44.632;10.942;2023-04-05T10:48:52;17.40;40.70
15554;DHT22;7878;44.632;10.942;2023-04-05T10:51:21;17.60;40.30
15554;DHT22;7878;44.632;10.942;2023-04-05T10:53:48;17.40;40.40
15554;DHT22;7878;44.632;10.942;2023-04-05T10:56:15;17.80;40.50
15554;DHT22;7878;44.632;10.942;2023-04-05T10:58:42;18.30;41.10
15554;DHT22;7878;44.632;10.942;2023-04-05T11:01:09;19.00;40.60
15554;DHT22;7878;44.632;10.942;2023-04-05T11:11:47;19.10;38.70
15554;DHT22;7878;44.632;10.942;2023-04-05T11:14:23;18.40;38.70
15554;DHT22;7878;44.632;10.942;2023-04-05T11:16:53;17.90;38.50
15554;DHT22;7878;44.632;10.942;2023-04-05T11:22:24;19.60;38.00
15554;DHT22;7878;44.632;10.942;2023-04-05T11:24:55;22.50;36.90
15554;DHT22;7878;44.632;10.942;2023-04-05T11:29:54;26.90;35.30
15554;DHT22;7878;44.632;10.942;2023-04-05T11:32:20;27.60;35.60
15554;DHT22;7878;44.632;10.942;2023-04-05T11:35:16;27.70;34.90
15554;DHT22;7878;44.632;10.942;2023-04-05T11:40:35;27.70;32.60
15554;DHT22;7878;44.632;10.942;2023-04-05T11:45:26;26.30;36.50
15554;DHT22;7878;44.632;10.942;2023-04-05T11:47:53;24.70;35.20
15554;DHT22;7878;44.632;10.942;2023-04-05T11:50:20;23.00;36.00
15554;DHT22;7878;44.632;10.942;2023-04-05T11:53:08;21.50;36.80
15554;DHT22;7878;44.632;10.942;2023-04-05T11:55:38;20.60;34.20
15554;DHT22;7878;44.632;10.942;2023-04-05T11:58:18;19.80;37.60
15554;DHT22;7878;44.632;10.942;2023-04-05T12:00:46;18.80;34.70
15554;DHT22;7878;44.632;10.942;2023-04-05T12:03:21;18.00;38.40
15554;DHT22;7878;44.632;10.942;2023-04-05T12:05:50;17.70;38.00
15554;DHT22;7878;44.632;10.942;2023-04-05T12:08:17;17.60;39.10
15554;DHT22;7878;44.632;10.942;2023-04-05T12:10:43;17.60;39.20
15554;DHT22;7878;44.632;10.942;2023-04-05T12:13:08;17.60;39.60
15554;DHT22;7878;44.632;10.942;2023-04-05T12:15:40;17.60;38.30
15554;DHT22;7878;44.632;10.942;2023-04-05T12:18:12;17.50;37.20
15554;DHT22;7878;44.632;10.942;2023-04-05T12:20:39;17.40;37.40
15554;DHT22;7878;44.632;10.942;2023-04-05T12:23:05;17.30;37.80
15554;DHT22;7878;44.632;10.942;2023-04-05T12:25:31;17.40;38.20
15554;DHT22;7878;44.632;10.942;2023-04-05T12:28:03;17.20;37.20
15554;DHT22;7878;44.632;10.942;2023-04-05T12:30:31;17.00;37.90
15554;DHT22;7878;44.632;10.942;2023-04-05T12:33:06;17.00;38.40
15554;DHT22;7878;44.632;10.942;2023-04-05T12:35:33;16.90;36.60
15554;DHT22;7878;44.632;10.942;2023-04-05T12:38:04;16.80;37.00
15554;DHT22;7878;44.632;10.942;2023-04-05T12:40:31;16.80;37.50
15554;DHT22;7878;44.632;10.942;2023-04-05T12:43:05;16.90;38.00
15554;DHT22;7878;44.632;10.942;2023-04-05T12:45:32;16.80;35.50
15554;DHT22;7878;44.632;10.942;2023-04-05T12:48:13;16.60;36.00
15554;DHT22;7878;44.632;10.942;2023-04-05T12:50:44;16.40;37.50
15554;DHT22;7878;44.632;10.942;2023-04-05T12:53:15;16.50;38.20
15554;DHT22;7878;44.632;10.942;2023-04-05T12:55:51;16.60;38.30
15554;DHT22;7878;44.632;10.942;2023-04-05T12:58:18;16.50;38.30
15554;DHT22;7878;44.632;10.942;2023-04-05T13:00:45;16.60;38.20
15554;DHT22;7878;44.632;10.942;2023-04-05T13:03:28;16.50;38.20
15554;DHT22;7878;44.632;10.942;2023-04-05T13:05:54;16.40;35.40
15554;DHT22;7878;44.632;10.942;2023-04-05T13:08:20;16.30;38.80
15554;DHT22;7878;44.632;10.942;2023-04-05T13:10:47;16.20;37.80
15554;DHT22;7878;44.632;10.942;2023-04-05T13:13:14;16.00;37.80
15554;DHT22;7878;44.632;10.942;2023-04-05T13:15:42;15.90;38.00
15554;DHT22;7878;44.632;10.942;2023-04-05T13:18:08;15.80;38.80
15554;DHT22;7878;44.632;10.942;2023-04-05T13:20:34;15.80;38.60
15554;DHT22;7878;44.632;10.942;2023-04-05T13:23:00;15.90;39.10
15554;DHT22;7878;44.632;10.942;2023-04-05T13:25:26;16.00;39.00
15554;DHT22;7878;44.632;10.942;2023-04-05T13:27:53;16.00;39.10
15554;DHT22;7878;44.632;10.942;2023-04-05T13:30:18;16.10;39.00
15554;DHT22;7878;44.632;10.942;2023-04-05T13:32:44;16.10;39.60
15554;DHT22;7878;44.632;10.942;2023-04-05T13:35:10;16.10;38.60
15554;DHT22;7878;44.632;10.942;2023-04-05T13:37:36;15.90;38.70
15554;DHT22;7878;44.632;10.942;2023-04-05T13:40:02;15.90;39.00
15554;DHT22;7878;44.632;10.942;2023-04-05T13:42:28;15.90;39.30
15554;DHT22;7878;44.632;10.942;2023-04-05T13:44:54;16.00;39.60
15554;DHT22;7878;44.632;10.942;2023-04-05T13:47:19;16.00;38.50
15554;DHT22;7878;44.632;10.942;2023-04-05T13:49:45;16.00;39.10
15554;DHT22;7878;44.632;10.942;2023-04-05T13:52:11;15.90;39.00
15554;DHT22;7878;44.632;10.942;2023-04-05T13:54:37;15.80;39.00
15554;DHT22;7878;44.632;10.942;2023-04-05T13:57:03;15.80;39.00
15554;DHT22;7878;44.632;10.942;2023-04-05T13:59:28;15.80;37.80
15554;DHT22;7878;44.632;10.942;2023-04-05T14:01:54;15.70;38.00
15554;DHT22;7878;44.632;10.942;2023-04-05T14:04:20;15.60;38.30
15554;DHT22;7878;44.632;10.942;2023-04-05T14:06:45;15.60;38.40
15554;DHT22;7878;44.632;10.942;2023-04-05T14:09:11;15.60;38.50
15554;DHT22;7878;44.632;10.942;2023-04-05T14:11:37;15.60;38.00
15554;DHT22;7878;44.632;10.942;2023-04-05T14:14:03;15.50;37.00
15554;DHT22;7878;44.632;10.942;2023-04-05T14:16:29;15.40;37.40
15554;DHT22;7878;44.632;10.942;2023-04-05T14:18:56;15.30;37.20
15554;DHT22;7878;44.632;10.942;2023-04-05T14:21:23;15.20;37.20
15554;DHT22;7878;44.632;10.942;2023-04-05T14:23:49;15.10;37.20
15554;DHT22;7878;44.632;10.942;2023-04-05T14:26:17;14.90;37.00
15554;DHT22;7878;44.632;10.942;2023-04-05T14:28:43;14.90;38.00
15554;DHT22;7878;44.632;10.942;2023-04-05T14:31:09;15.00;38.80
15554;DHT22;7878;44.632;10.942;2023-04-05T14:33:34;15.10;38.20
15554;DHT22;7878;44.632;10.942;2023-04-05T14:36:00;15.10;38.00
15554;DHT22;7878;44.632;10.942;2023-04-05T14:38:26;15.20;38.70
15554;DHT22;7878;44.632;10.942;2023-04-05T14:40:52;15.30;38.80
15554;DHT22;7878;44.632;10.942;2023-04-05T14:43:17;15.30;38.60
15554;DHT22;7878;44.632;10.942;2023-04-05T14:45:43;15.30;39.10
15554;DHT22;7878;44.632;10.942;2023-04-05T14:48:09;15.40;39.10
15554;DHT22;7878;44.632;10.942;2023-04-05T14:50:35;15.30;37.90
15554;DHT22;7878;44.632;10.942;2023-04-05T14:53:00;15.30;38.10
15554;DHT22;7878;44.632;10.942;2023-04-05T14:55:27;15.20;38.50
15554;DHT22;7878;44.632;10.942;2023-04-05T14:57:53;15.10;39.00
15554;DHT22;7878;44.632;10.942;2023-04-05T15:00:19;15.20;39.40
15554;DHT22;7878;44.632;10.942;2023-04-05T15:02:45;15.20;39.60
15554;DHT22;7878;44.632;10.942;2023-04-05T15:05:11;15.30;39.10
15554;DHT22;7878;44.632;10.942;2023-04-05T15:07:37;15.30;39.00
15554;DHT22;7878;44.632;10.942;2023-04-05T15:10:03;15.20;38.80
15554;DHT22;7878;44.632;10.942;2023-04-05T15:12:31;15.00;38.20
15554;DHT22;7878;44.632;10.942;2023-04-05T15:14:56;14.80;38.90
15554;DHT22;7878;44.632;10.942;2023-04-05T15:17:22;14.80;39.40
15554;DHT22;7878;44.632;10.942;2023-04-05T15:19:48;14.90;39.20
15554;DHT22;7878;44.632;10.942;2023-04-05T15:22:14;14.80;38.90
15554;DHT22;7878;44.632;10.942;2023-04-05T15:24:40;14.90;39.20
15554;DHT22;7878;44.632;10.942;2023-04-05T15:27:10;14.90;38.90
15554;DHT22;7878;44.632;10.942;2023-04-05T15:29:36;15.00;39.10
15554;DHT22;7878;44.632;10.942;2023-04-05T15:32:02;15.00;39.00
15554;DHT22;7878;44.632;10.942;2023-04-05T15:34:28;15.00;39.00
15554;DHT22;7878;44.632;10.942;2023-04-05T15:36:55;15.10;39.40
15554;DHT22;7878;44.632;10.942;2023-04-05T15:39:21;15.10;38.90
15554;DHT22;7878;44.632;10.942;2023-04-05T15:41:47;15.20;39.10
15554;DHT22;7878;44.632;10.942;2023-04-05T15:44:13;15.10;38.40
15554;DHT22;7878;44.632;10.942;2023-04-05T15:46:39;15.00;38.30
15554;DHT22;7878;44.632;10.942;2023-04-05T15:49:05;14.90;37.80
15554;DHT22;7878;44.632;10.942;2023-04-05T15:51:32;14.70;36.80
15554;DHT22;7878;44.632;10.942;2023-04-05T15:53:58;14.50;37.90
15554;DHT22;7878;44.632;10.942;2023-04-05T15:56:24;14.50;37.90
15554;DHT22;7878;44.632;10.942;2023-04-05T15:58:50;14.50;37.50
15554;DHT22;7878;44.632;10.942;2023-04-05T16:01:16;14.30;36.80
15554;DHT22;7878;44.632;10.942;2023-04-05T16:03:41;14.30;37.60
15554;DHT22;7878;44.632;10.942;2023-04-05T16:06:07;14.30;37.90
15554;DHT22;7878;44.632;10.942;2023-04-05T16:08:33;14.30;37.50
15554;DHT22;7878;44.632;10.942;2023-04-05T16:10:59;14.20;36.70
15554;DHT22;7878;44.632;10.942;2023-04-05T16:13:24;14.20;37.60
15554;DHT22;7878;44.632;10.942;2023-04-05T16:15:50;14.20;37.40
15554;DHT22;7878;44.632;10.942;2023-04-05T16:18:16;14.30;37.40
15554;DHT22;7878;44.632;10.942;2023-04-05T16:20:44;14.20;36.60
15554;DHT22;7878;44.632;10.942;2023-04-05T16:23:10;14.20;37.20
15554;DHT22;7878;44.632;10.942;2023-04-05T16:25:36;14.30;37.30
15554;DHT22;7878;44.632;10.942;2023-04-05T16:28:02;14.30;36.80